Archival Weather

Snohomish County (Paine Fld)

Everett, Washington (KPAE)

Report from: Saturday, November 11, 2023 4:53 PM PST
Current time: Sunday, June 16, 2024 11:12 PM PDT

Current weather – Weather history – Daily summaries
Weather forecast

Temperature10.0°C (50.0°F)
Wind chill6.4°C (43.5°F)
Dew point5.6°C (42.1°F)
Winds 18 kts (9.3 m/s, 20.7 mph) South (190°)
Wind gusts 29 kts (14.9 m/s, 33.4 mph)
Peak wind 30 kts (15.4 m/s, 34.5 mph) South (190°) at 23:56
Visibility10 mi. (16.1 km)
Clouds Sky clear
Altimeter29.97 in.Hg (1015 mB)
Relative humidity74 %
Density altitude-525 ft. (-160 m)
Sea-level pressure101.5 kPa (1015 mB, 29.97 in.Hg)
Remarks Automated weather observing station with precipitation discriminator
Flight conditions Visual Meteorological Conditions
Raw dataKPAE 120053Z 19018G29KT 10SM CLR 10/06 A2997 RMK AO2 PK WND 19030/2356 SLP150 T01000056
An error has occurred. This application may no longer respond until reloaded. Reload 🗙